createdAt,value
2018-06-08T00:01:33.271Z,36.90
2018-06-08T00:04:02.463Z,31.83
2018-06-08T00:06:31.508Z,36.53
2018-06-08T00:09:00.571Z,41.17
2018-06-08T00:11:29.595Z,39.17
2018-06-08T00:13:58.671Z,39.50
2018-06-08T00:16:27.684Z,36.87
2018-06-08T00:18:56.769Z,35.80
2018-06-08T00:21:25.851Z,34.87
2018-06-08T00:23:54.899Z,39.07
2018-06-08T00:26:23.975Z,39.87
2018-06-08T00:28:53.079Z,42.67
2018-06-08T00:31:22.130Z,34.97
2018-06-08T00:33:51.135Z,39.70
2018-06-08T00:36:20.234Z,35.27
2018-06-08T00:38:49.288Z,39.10
2018-06-08T00:41:18.355Z,40.47
2018-06-08T00:43:47.377Z,42.40
2018-06-08T00:46:16.467Z,42.20
2018-06-08T00:48:45.556Z,40.00
2018-06-08T00:51:14.566Z,36.60
2018-06-08T00:53:43.600Z,46.23
2018-06-08T00:56:23.764Z,36.00
2018-06-08T00:58:52.851Z,36.07
2018-06-08T01:01:22.401Z,43.90
2018-06-08T01:03:51.437Z,40.10
2018-06-08T01:06:20.472Z,42.33
2018-06-08T01:08:49.518Z,41.37
2018-06-08T01:11:19.030Z,41.87
2018-06-08T01:13:48.083Z,43.40
2018-06-08T01:16:17.147Z,43.33
2018-06-08T01:18:46.157Z,41.97
2018-06-08T01:21:15.220Z,38.03
2018-06-08T01:23:44.239Z,39.30
2018-06-08T01:26:13.259Z,43.13
2018-06-08T01:28:42.265Z,40.40
2018-06-08T01:31:11.320Z,39.30
2018-06-08T01:33:40.880Z,38.53
2018-06-08T01:36:10.047Z,35.67
2018-06-08T01:38:39.140Z,37.10
2018-06-08T01:41:08.184Z,40.43
2018-06-08T01:43:37.229Z,40.87
2018-06-08T01:46:06.250Z,39.93
2018-06-08T01:48:34.877Z,32.80
2018-06-08T01:51:03.903Z,38.57
2018-06-08T01:53:32.959Z,43.37
2018-06-08T01:56:02.054Z,41.87
2018-06-08T01:58:31.095Z,42.37
2018-06-08T02:01:00.197Z,40.00
2018-06-08T02:03:29.215Z,44.87
2018-06-08T02:05:58.258Z,41.83
2018-06-08T02:08:27.309Z,44.70
2018-06-08T02:10:56.360Z,42.33
2018-06-08T02:13:25.393Z,40.70
2018-06-08T02:15:54.515Z,37.50
2018-06-08T02:18:23.562Z,35.60
2018-06-08T02:20:52.563Z,39.07
2018-06-08T02:23:21.597Z,36.63
2018-06-08T02:25:50.657Z,35.53
2018-06-08T02:28:19.709Z,36.67
2018-06-08T02:30:48.761Z,40.33
2018-06-08T02:33:17.792Z,44.43
2018-06-08T02:35:47.050Z,40.73
2018-06-08T02:38:16.144Z,42.90
2018-06-08T02:40:45.147Z,43.40
2018-06-08T02:43:14.181Z,42.50
2018-06-08T02:45:43.242Z,45.10
2018-06-08T02:48:12.286Z,44.13
2018-06-08T02:50:41.367Z,42.37
2018-06-08T02:53:10.384Z,45.80
2018-06-08T02:55:39.440Z,40.80
2018-06-08T02:58:08.510Z,38.47
2018-06-08T03:00:37.552Z,41.73
2018-06-08T03:03:06.575Z,38.30
2018-06-08T03:05:35.643Z,42.63
2018-06-08T03:08:05.143Z,39.87
2018-06-08T03:10:34.267Z,42.87
2018-06-08T03:13:03.525Z,41.00
2018-06-08T03:15:32.568Z,42.23
2018-06-08T03:18:01.617Z,37.80
2018-06-08T03:20:30.610Z,43.67
2018-06-08T03:22:59.169Z,43.47
2018-06-08T03:25:28.204Z,45.13
2018-06-08T03:27:57.260Z,43.67
2018-06-08T03:30:26.291Z,41.10
2018-06-08T03:32:55.319Z,41.30
2018-06-08T03:35:24.312Z,51.57
2018-06-08T03:37:53.393Z,42.13
2018-06-08T03:40:22.380Z,41.63
2018-06-08T03:42:51.383Z,44.10
2018-06-08T03:45:20.431Z,47.23
2018-06-08T03:47:49.689Z,45.20
2018-06-08T03:50:18.757Z,43.53
2018-06-08T03:52:47.751Z,45.07
2018-06-08T03:55:16.799Z,39.57
2018-06-08T03:57:45.832Z,43.23
2018-06-08T04:00:14.913Z,47.83
2018-06-08T04:02:43.962Z,40.67
2018-06-08T04:05:13.031Z,42.30
2018-06-08T04:07:42.062Z,42.37
2018-06-08T04:10:11.094Z,43.67
2018-06-08T04:12:40.240Z,47.20
2018-06-08T04:15:09.315Z,43.77
2018-06-08T04:17:40.477Z,42.23
2018-06-08T04:20:09.529Z,40.50
2018-06-08T04:22:38.583Z,40.20
2018-06-08T04:25:07.616Z,41.93
2018-06-08T04:27:36.635Z,45.97
2018-06-08T04:30:05.772Z,46.53
2018-06-08T04:32:34.817Z,49.07
2018-06-08T04:35:03.999Z,61.57
2018-06-08T04:37:33.078Z,54.00
2018-06-08T04:40:02.123Z,52.90
2018-06-08T04:42:31.140Z,52.50
2018-06-08T04:45:00.215Z,57.90
2018-06-08T04:47:29.223Z,69.87
2018-06-08T04:49:58.267Z,60.37
2018-06-08T04:52:27.280Z,65.90
2018-06-08T04:54:56.297Z,50.27
2018-06-08T04:57:25.379Z,57.17
2018-06-08T04:59:54.408Z,55.07
2018-06-08T05:02:23.465Z,53.60
2018-06-08T05:04:52.531Z,59.87
2018-06-08T05:07:21.576Z,51.97
2018-06-08T05:09:50.607Z,50.63
2018-06-08T05:12:19.639Z,58.60
2018-06-08T05:14:48.753Z,64.60
2018-06-08T05:17:17.779Z,54.63
2018-06-08T05:19:46.815Z,55.90
2018-06-08T05:22:15.864Z,56.87
2018-06-08T05:24:44.891Z,62.57
2018-06-08T05:27:13.945Z,55.27
2018-06-08T05:29:43.046Z,48.60
2018-06-08T05:32:12.043Z,55.07
2018-06-08T05:34:41.089Z,52.43
2018-06-08T05:37:10.123Z,48.40
2018-06-08T05:39:39.206Z,54.50
2018-06-08T05:42:08.272Z,56.50
2018-06-08T05:44:37.368Z,49.93
2018-06-08T05:47:06.491Z,49.80
2018-06-08T05:49:35.501Z,49.47
2018-06-08T05:52:04.593Z,52.40
2018-06-08T05:54:34.066Z,45.17
2018-06-08T05:57:03.123Z,45.43
2018-06-08T05:59:32.154Z,46.20
2018-06-08T06:02:01.263Z,53.67
2018-06-08T06:04:30.976Z,47.07
2018-06-08T06:06:59.982Z,48.27
2018-06-08T06:09:29.693Z,47.50
2018-06-08T06:11:58.736Z,54.07
2018-06-08T06:14:27.739Z,54.40
2018-06-08T06:16:56.809Z,51.97
2018-06-08T06:19:25.842Z,46.73
2018-06-08T06:21:54.931Z,47.80
2018-06-08T06:24:23.935Z,49.17
2018-06-08T06:26:52.983Z,50.27
2018-06-08T06:29:22.016Z,54.23
2018-06-08T06:31:51.011Z,49.73
2018-06-08T06:34:20.736Z,50.63
2018-06-08T06:36:49.285Z,51.93
2018-06-08T06:39:18.331Z,52.97
2018-06-08T06:41:47.372Z,51.10
2018-06-08T06:44:17.169Z,51.27
2018-06-08T06:46:46.432Z,49.97
2018-06-08T06:49:15.766Z,51.57
2018-06-08T06:51:44.807Z,49.50
2018-06-08T06:54:13.838Z,51.20
2018-06-08T06:56:42.969Z,48.67
2018-06-08T06:59:12.090Z,50.43
2018-06-08T07:01:41.140Z,46.57
2018-06-08T07:04:10.163Z,46.17
2018-06-08T07:06:39.283Z,40.93
2018-06-08T07:09:09.544Z,36.20
2018-06-08T07:11:38.603Z,37.23
2018-06-08T07:14:07.690Z,32.80
2018-06-08T07:16:37.534Z,29.73
2018-06-08T07:19:06.601Z,24.53
2018-06-08T07:21:35.899Z,27.27
2018-06-08T07:24:04.952Z,26.50
2018-06-08T07:26:34.704Z,26.07
2018-06-08T07:29:03.765Z,29.90
2018-06-08T07:31:32.915Z,30.30
2018-06-08T07:34:01.950Z,26.47
2018-06-08T07:36:31.439Z,28.20
2018-06-08T07:39:00.470Z,28.50
2018-06-08T07:41:29.539Z,26.30
2018-06-08T07:43:58.546Z,28.30
2018-06-08T07:46:27.587Z,31.93
2018-06-08T07:48:56.603Z,29.27
2018-06-08T07:51:25.703Z,27.40
2018-06-08T07:53:54.738Z,30.33
2018-06-08T07:56:23.840Z,28.27
2018-06-08T07:58:52.886Z,27.07
2018-06-08T08:01:21.907Z,28.70
2018-06-08T08:03:50.928Z,25.60
2018-06-08T08:06:20.008Z,26.00
2018-06-08T08:08:49.007Z,28.10
2018-06-08T08:11:18.124Z,27.73
2018-06-08T08:13:47.135Z,25.80
2018-06-08T08:16:16.190Z,24.00
2018-06-08T08:18:45.222Z,26.33
2018-06-08T08:21:14.297Z,23.17
2018-06-08T08:23:43.379Z,25.20
2018-06-08T08:26:12.520Z,23.40
2018-06-08T08:28:41.567Z,25.57
2018-06-08T08:31:10.643Z,23.47
2018-06-08T08:33:39.687Z,21.40
2018-06-08T08:36:08.706Z,19.50
2018-06-08T08:38:37.908Z,22.30
2018-06-08T08:41:07.048Z,21.93
2018-06-08T09:29:02.050Z,17.83
2018-06-08T09:31:31.091Z,20.27
2018-06-08T09:34:00.125Z,18.10
2018-06-08T09:36:29.234Z,22.00
2018-06-08T09:38:58.431Z,20.27
2018-06-08T09:41:27.588Z,21.57
2018-06-08T09:43:56.683Z,21.53
2018-06-08T09:46:25.783Z,19.63
2018-06-08T09:48:54.783Z,21.53
2018-06-08T09:51:23.831Z,21.73
2018-06-08T09:53:52.911Z,17.77
2018-06-08T09:56:21.924Z,18.13
2018-06-08T09:58:51.011Z,22.37
2018-06-08T10:01:20.015Z,21.47
2018-06-08T10:03:49.076Z,18.50
2018-06-08T10:06:18.176Z,19.40
2018-06-08T10:08:47.292Z,20.90
2018-06-08T10:11:16.374Z,20.00
2018-06-08T10:13:45.562Z,18.90
2018-06-08T10:16:15.077Z,20.00
2018-06-08T10:18:44.124Z,21.20
2018-06-08T10:21:13.186Z,21.53
2018-06-08T10:23:42.186Z,20.40
2018-06-08T10:26:11.244Z,20.60
2018-06-08T10:28:40.270Z,19.03
2018-06-08T10:31:09.374Z,18.80
2018-06-08T10:33:38.400Z,20.33
2018-06-08T10:36:08.253Z,15.80
2018-06-08T10:38:37.349Z,18.50
2018-06-08T10:41:06.394Z,16.73
2018-06-08T10:43:35.394Z,17.33
2018-06-08T10:46:04.494Z,16.50
2018-06-08T10:48:33.527Z,17.30
2018-06-08T10:51:02.596Z,17.20
2018-06-08T10:53:31.624Z,15.20
2018-06-08T10:56:00.726Z,16.70
2018-06-08T10:58:29.783Z,16.67
2018-06-08T11:00:58.798Z,16.57
2018-06-08T11:03:28.502Z,16.10
2018-06-08T11:05:57.496Z,16.30
2018-06-08T11:08:26.539Z,18.13
2018-06-08T11:10:55.606Z,16.53
2018-06-08T11:13:24.627Z,16.20
2018-06-08T11:15:53.695Z,15.47
2018-06-08T11:18:22.792Z,16.60
2018-06-08T11:20:51.863Z,21.00
2018-06-08T11:23:20.444Z,17.03
2018-06-08T11:25:49.584Z,16.30
2018-06-08T11:28:18.847Z,14.63
2018-06-08T11:30:47.951Z,11.83
2018-06-08T11:33:17.052Z,13.77
2018-06-08T11:35:46.127Z,13.47
2018-06-08T11:38:15.213Z,15.13
2018-06-08T11:40:44.307Z,15.80
2018-06-08T11:43:14.234Z,15.27
2018-06-08T11:45:43.834Z,15.00
2018-06-08T11:48:12.922Z,12.50
2018-06-08T11:50:41.982Z,12.33
2018-06-08T11:53:11.075Z,12.33
2018-06-08T11:55:40.099Z,10.23
2018-06-08T11:58:09.215Z,12.03
2018-06-08T12:00:38.338Z,10.77
2018-06-08T12:03:07.411Z,12.30
2018-06-08T12:05:36.483Z,12.30
2018-06-08T12:08:05.982Z,10.27
2018-06-08T12:10:35.131Z,12.23
2018-06-08T12:13:04.281Z,12.13
2018-06-08T12:15:33.364Z,10.23
2018-06-08T12:18:01.966Z,11.57
2018-06-08T12:20:31.054Z,10.80
2018-06-08T12:23:00.148Z,11.00
2018-06-08T12:25:29.200Z,9.60
2018-06-08T12:27:58.262Z,9.93
2018-06-08T12:30:27.478Z,11.17
2018-06-08T12:32:56.585Z,10.23
2018-06-08T12:35:25.584Z,9.87
2018-06-08T12:37:54.648Z,8.43
2018-06-08T12:40:23.735Z,10.23
2018-06-08T12:42:52.799Z,8.90
2018-06-08T12:45:24.745Z,8.80
2018-06-08T12:47:54.365Z,9.17
2018-06-08T12:50:23.564Z,9.10
2018-06-08T12:52:52.770Z,8.70
2018-06-08T12:55:21.854Z,7.20
2018-06-08T12:57:50.872Z,7.53
2018-06-08T13:00:19.931Z,8.60
2018-06-08T13:02:48.959Z,8.50
2018-06-08T13:05:18.091Z,9.17
2018-06-08T13:07:47.146Z,7.60
2018-06-08T13:10:16.264Z,6.80
2018-06-08T13:12:45.279Z,6.87
2018-06-08T13:15:14.324Z,6.90
2018-06-08T13:17:43.368Z,6.13
2018-06-08T13:20:12.437Z,6.97
2018-06-08T13:22:41.524Z,7.67
2018-06-08T13:25:11.121Z,7.80
2018-06-08T13:27:40.177Z,6.73
2018-06-08T13:30:09.446Z,7.30
2018-06-08T13:32:38.883Z,9.40
2018-06-08T13:35:07.959Z,8.50
2018-06-08T13:37:37.172Z,7.17
2018-06-08T13:40:06.353Z,8.70
2018-06-08T13:42:35.409Z,7.00
2018-06-08T13:45:04.639Z,7.70
2018-06-08T13:47:33.684Z,8.07
2018-06-08T13:50:02.723Z,7.77
2018-06-08T13:52:31.761Z,7.93
2018-06-08T13:55:00.799Z,7.30
2018-06-08T13:57:29.898Z,8.97
2018-06-08T13:59:58.986Z,8.07
2018-06-08T14:02:28.086Z,7.80
2018-06-08T14:04:57.203Z,6.83
2018-06-08T14:07:26.318Z,8.83
2018-06-08T14:09:55.397Z,7.03
2018-06-08T14:12:24.380Z,7.97
2018-06-08T14:14:53.420Z,7.33
2018-06-08T14:17:22.591Z,7.10
2018-06-08T14:19:51.633Z,7.43
2018-06-08T14:22:20.194Z,6.37
2018-06-08T14:24:49.250Z,6.20
2018-06-08T14:27:18.267Z,6.50
2018-06-08T14:29:47.306Z,6.23
2018-06-08T14:32:17.388Z,5.57
2018-06-08T14:34:46.466Z,6.40
2018-06-08T14:37:15.505Z,6.57
2018-06-08T14:39:44.542Z,6.40
2018-06-08T14:42:13.622Z,6.60
2018-06-08T14:44:42.660Z,6.47
2018-06-08T14:47:11.812Z,6.50
2018-06-08T14:49:40.827Z,7.17
2018-06-08T14:52:09.891Z,6.00
2018-06-08T14:54:38.919Z,6.20
2018-06-08T14:57:08.024Z,6.50
2018-06-08T14:59:37.110Z,6.20
2018-06-08T15:02:06.218Z,6.03
2018-06-08T15:04:35.423Z,6.13
2018-06-08T15:07:04.531Z,5.90
2018-06-08T15:09:33.661Z,7.10
2018-06-08T15:12:02.703Z,6.00
2018-06-08T15:14:31.740Z,6.30
2018-06-08T15:17:00.788Z,6.13
2018-06-08T15:19:29.825Z,6.07
2018-06-08T15:21:58.851Z,6.37
2018-06-08T15:24:27.935Z,6.20
2018-06-08T15:26:56.964Z,6.30
2018-06-08T15:29:25.992Z,6.40
2018-06-08T15:31:55.102Z,6.03
2018-06-08T15:34:24.232Z,6.43
2018-06-08T15:36:53.348Z,6.93
2018-06-08T15:39:22.379Z,5.80
2018-06-08T15:41:51.457Z,6.70
2018-06-08T15:44:20.518Z,5.30
2018-06-08T15:46:49.593Z,5.03
2018-06-08T15:49:18.592Z,5.27
2018-06-08T15:51:47.647Z,5.67
2018-06-08T15:54:16.758Z,6.43
2018-06-08T15:56:45.728Z,7.20
2018-06-08T15:59:14.794Z,7.77
2018-06-08T16:01:43.832Z,9.37
2018-06-08T16:04:13.064Z,9.57
2018-06-08T16:06:42.244Z,8.40
2018-06-08T16:09:11.350Z,9.90
2018-06-08T16:11:40.514Z,9.20
2018-06-08T16:14:09.713Z,10.53
2018-06-08T16:16:38.823Z,11.23
2018-06-08T16:19:07.872Z,13.30
2018-06-08T16:21:36.979Z,13.50
2018-06-08T16:24:06.107Z,13.00
2018-06-08T16:26:35.333Z,12.37
2018-06-08T16:29:04.501Z,11.60
2018-06-08T16:31:33.625Z,9.27
2018-06-08T16:34:02.751Z,8.70
2018-06-08T16:36:31.867Z,9.27
2018-06-08T16:39:00.939Z,7.30
2018-06-08T16:41:29.990Z,7.23
2018-06-08T16:43:59.015Z,6.97
2018-06-08T16:46:28.086Z,7.10
2018-06-08T16:48:57.265Z,8.00
2018-06-08T16:51:26.351Z,8.10
2018-06-08T16:53:55.386Z,6.57
2018-06-08T16:56:24.444Z,6.87
2018-06-08T16:58:53.468Z,7.70
2018-06-08T17:01:22.519Z,6.47
2018-06-08T17:03:51.039Z,6.47
2018-06-08T17:06:20.081Z,6.63
2018-06-08T17:08:49.062Z,7.37
2018-06-08T17:11:18.115Z,7.50
2018-06-08T17:13:47.148Z,7.43
2018-06-08T17:16:16.256Z,7.70
2018-06-08T17:18:45.357Z,7.40
2018-06-08T17:21:14.421Z,7.20
2018-06-08T17:23:43.502Z,6.30
2018-06-08T17:26:12.513Z,6.03
2018-06-08T17:28:41.543Z,6.50
2018-06-08T17:31:10.595Z,7.10
2018-06-08T17:33:39.693Z,6.80
2018-06-08T17:36:08.775Z,6.50
2018-06-08T17:38:37.761Z,6.40
2018-06-08T17:41:06.893Z,6.17
2018-06-08T17:43:36.681Z,6.40
2018-06-08T17:46:05.885Z,6.97
2018-06-08T17:48:34.979Z,7.60
2018-06-08T17:51:04.117Z,7.70
2018-06-08T17:53:33.583Z,7.53
2018-06-08T17:56:02.859Z,8.00
2018-06-08T17:58:31.982Z,7.20
2018-06-08T18:01:00.986Z,8.10
2018-06-08T18:03:30.073Z,7.80
2018-06-08T18:05:59.127Z,7.97
2018-06-08T18:08:28.156Z,8.13
2018-06-08T18:10:57.219Z,8.80
2018-06-08T18:13:26.247Z,9.47
2018-06-08T18:15:56.139Z,7.73
2018-06-08T18:18:25.209Z,7.27
2018-06-08T18:20:54.240Z,6.83
2018-06-08T18:23:23.292Z,7.23
2018-06-08T18:25:52.314Z,8.20
2018-06-08T18:28:21.351Z,7.83
2018-06-08T18:30:50.419Z,7.90
2018-06-08T18:33:19.500Z,8.50
2018-06-08T18:35:48.516Z,8.07
2018-06-08T18:38:17.909Z,8.37
2018-06-08T18:40:46.987Z,7.90
2018-06-08T18:43:16.309Z,8.73
2018-06-08T18:45:45.397Z,7.67
2018-06-08T18:48:14.435Z,8.40
2018-06-08T18:50:43.612Z,7.67
2018-06-08T18:53:12.611Z,7.73
2018-06-08T18:55:41.649Z,7.50
2018-06-08T18:58:10.683Z,6.10
2018-06-08T19:00:39.742Z,6.37
2018-06-08T19:03:08.818Z,6.17
2018-06-08T19:05:37.813Z,4.83
2018-06-08T19:08:06.840Z,5.10
2018-06-08T19:10:35.847Z,4.30
2018-06-08T19:13:04.955Z,4.97
2018-06-08T19:15:34.820Z,4.80
2018-06-08T19:18:03.904Z,4.90
2018-06-08T19:20:32.907Z,4.50
2018-06-08T19:23:01.940Z,4.67
2018-06-08T19:25:31.000Z,4.30
2018-06-08T19:28:00.369Z,4.97
2018-06-08T19:30:28.923Z,4.33
2018-06-08T19:32:58.486Z,5.00
2018-06-08T19:35:27.543Z,4.73
2018-06-08T19:37:57.275Z,4.27
2018-06-08T19:40:27.191Z,5.30
2018-06-08T19:42:56.498Z,4.70
2018-06-08T19:45:25.534Z,4.23
2018-06-08T19:47:54.516Z,4.07
2018-06-08T19:50:24.462Z,4.80
2018-06-08T19:52:53.523Z,5.00
2018-06-08T19:55:22.584Z,5.30
2018-06-08T19:57:51.649Z,5.33
2018-06-08T20:00:20.690Z,5.30
2018-06-08T20:02:49.790Z,4.60
2018-06-08T20:05:18.814Z,5.13
2018-06-08T20:07:47.879Z,5.60
2018-06-08T20:10:16.905Z,5.67
2018-06-08T20:12:46.010Z,5.93
2018-06-08T20:15:15.040Z,6.20
2018-06-08T20:17:44.099Z,6.70
2018-06-08T20:20:13.111Z,6.60
2018-06-08T20:22:42.147Z,5.77
2018-06-08T20:25:11.163Z,5.83
2018-06-08T20:27:40.230Z,5.97
2018-06-08T20:30:09.259Z,6.13
2018-06-08T20:32:38.227Z,6.00
2018-06-08T20:35:07.285Z,6.47
2018-06-08T20:37:36.294Z,6.00
2018-06-08T20:40:05.458Z,5.97
2018-06-08T20:42:34.464Z,6.90
2018-06-08T20:45:03.528Z,6.50
2018-06-08T20:47:32.531Z,6.10
2018-06-08T20:50:01.949Z,6.70
2018-06-08T20:52:31.019Z,5.87
2018-06-08T20:55:00.047Z,5.93
2018-06-08T20:57:29.832Z,5.60
2018-06-08T20:59:58.852Z,6.20
2018-06-08T21:02:27.907Z,5.67
2018-06-08T21:04:56.908Z,6.13
2018-06-08T21:07:25.960Z,7.00
2018-06-08T21:09:54.953Z,6.80
2018-06-08T21:12:24.039Z,7.00
2018-06-08T21:14:53.112Z,6.50
2018-06-08T21:17:22.141Z,6.37
2018-06-08T21:19:51.200Z,5.57
2018-06-08T21:22:20.215Z,6.50
2018-06-08T21:24:49.248Z,6.00
2018-06-08T21:27:18.271Z,5.60
2018-06-08T21:29:48.268Z,6.03
2018-06-08T21:32:17.339Z,6.60
2018-06-08T21:34:46.404Z,6.10
2018-06-08T21:37:15.925Z,5.43
2018-06-08T21:39:44.920Z,6.77
2018-06-08T21:42:13.947Z,5.33
2018-06-08T21:44:43.004Z,5.70
2018-06-08T21:47:12.025Z,6.13
2018-06-08T21:49:41.066Z,5.43
2018-06-08T21:52:10.277Z,6.20
2018-06-08T21:54:39.326Z,5.27
2018-06-08T21:57:08.318Z,6.40
2018-06-08T21:59:37.374Z,5.60
2018-06-08T22:02:06.439Z,5.87
2018-06-08T22:04:35.511Z,6.10
2018-06-08T22:07:04.520Z,5.40
2018-06-08T22:09:33.555Z,6.20
2018-06-08T22:12:02.591Z,5.90
2018-06-08T22:14:31.666Z,6.13
2018-06-08T22:17:00.727Z,5.73
2018-06-08T22:19:29.804Z,5.57
2018-06-08T22:21:58.854Z,6.30
2018-06-08T22:24:27.898Z,5.80
2018-06-08T22:26:56.882Z,6.60
2018-06-08T22:29:25.946Z,6.80
2018-06-08T22:31:54.497Z,5.97
2018-06-08T22:34:23.564Z,4.90
2018-06-08T22:36:52.590Z,5.90
2018-06-08T22:39:21.667Z,6.77
2018-06-08T22:41:50.711Z,5.77
2018-06-08T22:44:19.742Z,5.67
2018-06-08T22:46:48.820Z,5.90
2018-06-08T22:49:17.844Z,5.67
2018-06-08T22:51:46.922Z,6.00
2018-06-08T22:54:15.991Z,5.60
2018-06-08T22:56:45.016Z,5.60
2018-06-08T22:59:14.079Z,6.00
2018-06-08T23:01:43.104Z,4.87
2018-06-08T23:04:12.327Z,4.70
2018-06-08T23:06:42.252Z,5.20
2018-06-08T23:09:11.297Z,5.80
2018-06-08T23:11:40.302Z,5.00
2018-06-08T23:14:09.391Z,4.60
2018-06-08T23:16:38.412Z,4.47
2018-06-08T23:19:07.424Z,5.20
2018-06-08T23:21:36.438Z,4.23
2018-06-08T23:24:05.474Z,5.20
2018-06-08T23:26:34.679Z,5.13
2018-06-08T23:29:03.682Z,4.97
2018-06-08T23:31:32.283Z,4.90
2018-06-08T23:34:01.343Z,5.30
2018-06-08T23:36:30.334Z,4.00
2018-06-08T23:38:59.378Z,5.20
2018-06-08T23:41:28.398Z,4.70
2018-06-08T23:43:57.407Z,5.00
2018-06-08T23:46:26.403Z,5.13
2018-06-08T23:48:55.582Z,4.30
2018-06-08T23:51:24.586Z,4.23
2018-06-08T23:53:53.680Z,4.93
2018-06-08T23:56:23.303Z,5.10
2018-06-08T23:58:51.869Z,4.73
